Portada
METAR-TAF:

METAR-TAF

Aeropuertos :

Mesina, Italia

latitud: 38-12N, longitud: 015-33E, altitud: 59 m

Observación

El informe se hizo hace 1 hora y 5 minutos, a las 11:55 UTC
Viento 12 kt del oeste-noroeste
Temperatura 15°C
Humedad 55%
Presión 1011 hPa
Visibilidad 10 km o más
Nubes dispersas a una altura de 3000 ft

METAR: LICF 041155Z 30012KT 9999 SCT030 15/06 Q1011 RMK SCT QUK 2 QUL 1 NW VIS MAR 20 KM MON CLD SCT ELEV SLW VIS MIN 9999

Hora: 15:00 (13:00 UTC)


TAF: falta

Observaciones y pronósticos meteorológicos de más de 4000 aeropuertos (mensajes METAR y TAF).

Los puntos amarillos y rojos representan las estaciones disponibles.

Ponga el ratón en el punto deseado para ver el nombre de la estación.

Haga clic para ver las observaciones y los pronósticos meteorológicos.

Para cambiar el mapa : haga clic en los botones verdes con una cruz de color negro para hacer un zoom, en el botón verde con un guión para alejar o en las flechas verdes para mapas adyacentes.


METAR-TAF: